createdAt,value
2023-01-26T00:03:05.144Z,100.00
2023-01-26T00:07:58.252Z,100.00
2023-01-26T00:12:50.030Z,100.00
2023-01-26T00:17:41.859Z,100.00
2023-01-26T00:22:33.661Z,100.00
2023-01-26T00:27:25.641Z,100.00
2023-01-26T00:32:17.740Z,100.00
2023-01-26T00:37:09.591Z,100.00
2023-01-26T00:42:07.147Z,100.00
2023-01-26T00:46:59.221Z,100.00
2023-01-26T00:51:51.193Z,100.00
2023-01-26T00:56:42.910Z,100.00
2023-01-26T01:01:34.862Z,100.00
2023-01-26T01:06:26.901Z,100.00
2023-01-26T01:11:18.708Z,100.00
2023-01-26T01:16:14.657Z,100.00
2023-01-26T01:21:11.573Z,100.00
2023-01-26T01:26:05.073Z,100.00
2023-01-26T01:30:56.867Z,100.00
2023-01-26T01:36:04.264Z,100.00
2023-01-26T01:40:57.158Z,100.00
2023-01-26T01:45:49.885Z,100.00
2023-01-26T01:50:42.925Z,100.00
2023-01-26T01:55:35.434Z,100.00
2023-01-26T02:00:27.618Z,100.00
2023-01-26T02:05:30.086Z,100.00
2023-01-26T02:10:22.976Z,100.00
2023-01-26T02:15:14.871Z,100.00
2023-01-26T02:20:13.180Z,100.00
2023-01-26T02:25:13.606Z,100.00
2023-01-26T02:30:06.956Z,100.00
2023-01-26T02:34:58.801Z,100.00
2023-01-26T02:39:56.837Z,100.00
2023-01-26T02:44:48.764Z,100.00
2023-01-26T02:49:51.108Z,100.00
2023-01-26T02:55:01.528Z,100.00
2023-01-26T02:59:53.289Z,100.00
2023-01-26T03:04:45.090Z,100.00
2023-01-26T03:09:36.954Z,100.00
2023-01-26T03:14:28.703Z,100.00
2023-01-26T03:19:39.012Z,100.00
2023-01-26T03:24:49.476Z,100.00
2023-01-26T03:29:41.242Z,100.00
2023-01-26T03:34:33.203Z,100.00
2023-01-26T03:39:43.791Z,100.00
2023-01-26T03:44:54.088Z,100.00
2023-01-26T03:50:04.730Z,100.00
2023-01-26T03:55:15.088Z,100.00
2023-01-26T04:00:07.374Z,100.00
2023-01-26T04:05:17.989Z,100.00
2023-01-26T04:10:11.478Z,100.00
2023-01-26T04:15:22.472Z,100.00
2023-01-26T04:20:33.163Z,100.00
2023-01-26T04:25:24.834Z,100.00
2023-01-26T04:30:18.023Z,100.00
2023-01-26T04:35:10.898Z,100.00
2023-01-26T04:40:04.412Z,100.00
2023-01-26T04:44:56.246Z,100.00
2023-01-26T04:49:48.333Z,100.00
2023-01-26T04:54:40.868Z,100.00
2023-01-26T04:59:32.892Z,100.00
2023-01-26T05:04:24.749Z,100.00
2023-01-26T05:09:16.576Z,100.00
2023-01-26T05:14:08.295Z,100.00
2023-01-26T05:19:00.115Z,100.00
2023-01-26T05:23:51.926Z,100.00
2023-01-26T05:28:43.746Z,100.00
2023-01-26T05:33:35.463Z,100.00
2023-01-26T05:38:27.264Z,100.00
2023-01-26T05:43:19.089Z,100.00
2023-01-26T05:48:10.829Z,100.00
2023-01-26T05:53:03.214Z,100.00
2023-01-26T05:57:55.032Z,100.00
2023-01-26T06:02:48.607Z,100.00
2023-01-26T06:07:40.600Z,100.00
2023-01-26T06:12:35.585Z,100.00
2023-01-26T06:17:27.518Z,100.00
2023-01-26T06:22:19.422Z,100.00
2023-01-26T06:27:16.030Z,100.00
2023-01-26T06:32:08.105Z,100.00
2023-01-26T06:36:59.854Z,100.00
2023-01-26T06:41:51.565Z,100.00
2023-01-26T06:46:43.289Z,100.00
2023-01-26T06:52:19.573Z,100.00
2023-01-26T06:57:12.697Z,100.00
2023-01-26T07:02:05.441Z,100.00
2023-01-26T07:06:57.251Z,100.00
2023-01-26T07:11:49.511Z,100.00
2023-01-26T07:16:41.291Z,100.00
2023-01-26T07:21:33.439Z,100.00
2023-01-26T07:26:26.568Z,100.00
2023-01-26T07:31:19.891Z,100.00
2023-01-26T07:36:11.708Z,100.00
2023-01-26T07:41:11.676Z,100.00
2023-01-26T07:46:04.358Z,100.00
2023-01-26T07:51:00.241Z,100.00
2023-01-26T07:55:52.090Z,100.00
2023-01-26T08:00:47.244Z,100.00
2023-01-26T08:05:39.148Z,100.00
2023-01-26T08:10:32.129Z,100.00
2023-01-26T08:15:23.826Z,100.00
2023-01-26T08:20:15.886Z,100.00
2023-01-26T08:25:08.710Z,100.00
2023-01-26T08:30:00.412Z,100.00
2023-01-26T08:34:52.211Z,100.00
2023-01-26T08:39:44.044Z,100.00
2023-01-26T08:44:35.893Z,100.00
2023-01-26T08:49:27.631Z,100.00
2023-01-26T08:54:19.595Z,100.00
2023-01-26T08:59:11.327Z,100.00
2023-01-26T09:04:03.370Z,100.00
2023-01-26T09:08:55.078Z,100.00
2023-01-26T09:13:58.957Z,100.00
2023-01-26T09:18:51.660Z,100.00
2023-01-26T09:23:43.390Z,100.00
2023-01-26T09:28:35.072Z,100.00
2023-01-26T09:33:26.915Z,100.00
2023-01-26T09:38:18.638Z,100.00
2023-01-26T09:43:24.107Z,100.00
2023-01-26T09:48:35.354Z,100.00
2023-01-26T09:53:49.538Z,100.00
2023-01-26T09:58:42.919Z,99.12
2023-01-26T10:04:03.721Z,93.74
2023-01-26T10:09:15.462Z,92.76
2023-01-26T10:14:20.661Z,90.60
2023-01-26T10:19:37.778Z,91.47
2023-01-26T10:24:30.437Z,86.59
2023-01-26T10:29:23.029Z,83.06
2023-01-26T10:34:18.313Z,77.25
2023-01-26T10:39:14.665Z,80.08
2023-01-26T10:44:10.105Z,74.83
2023-01-26T10:49:09.249Z,76.57
2023-01-26T10:54:20.190Z,77.59
2023-01-26T10:59:23.363Z,75.11
2023-01-26T11:04:15.462Z,71.86
2023-01-26T11:09:14.324Z,72.39
2023-01-26T11:14:26.551Z,72.96
2023-01-26T11:19:26.999Z,69.55
2023-01-26T11:24:25.355Z,68.19
2023-01-26T11:29:35.506Z,70.87
2023-01-26T11:34:36.180Z,69.27
2023-01-26T11:40:05.577Z,69.20
2023-01-26T11:45:23.416Z,70.69
2023-01-26T11:50:40.529Z,71.33
2023-01-26T11:55:56.626Z,69.15
2023-01-26T12:01:01.812Z,69.15
2023-01-26T12:06:02.718Z,69.70
2023-01-26T12:11:22.676Z,68.44
2023-01-26T12:16:23.522Z,69.02
2023-01-26T12:21:15.420Z,71.12
2023-01-26T12:26:13.728Z,69.66
2023-01-26T12:31:32.369Z,66.61
2023-01-26T12:36:31.119Z,66.62
2023-01-26T12:41:38.586Z,67.86
2023-01-26T12:46:36.334Z,69.19
2023-01-26T12:51:32.956Z,68.69
2023-01-26T12:56:32.688Z,69.44
2023-01-26T13:01:27.037Z,67.98
2023-01-26T13:06:21.704Z,68.70
2023-01-26T13:11:44.031Z,69.12
2023-01-26T13:16:35.896Z,70.64
2023-01-26T13:21:44.382Z,69.68
2023-01-26T13:26:45.417Z,71.03
2023-01-26T13:31:37.233Z,72.11
2023-01-26T13:36:35.276Z,70.40
2023-01-26T13:41:27.339Z,71.47
2023-01-26T13:46:19.457Z,69.88
2023-01-26T13:51:22.697Z,70.73
2023-01-26T13:56:24.418Z,72.68
2023-01-26T14:01:17.326Z,73.35
2023-01-26T14:06:17.334Z,73.65
2023-01-26T14:11:19.200Z,73.44
2023-01-26T14:16:30.095Z,73.98
2023-01-26T14:21:22.728Z,73.91
2023-01-26T14:26:34.768Z,74.24
2023-01-26T14:31:28.571Z,74.58
2023-01-26T14:36:21.959Z,74.69
2023-01-26T14:41:17.589Z,75.24
2023-01-26T14:46:18.565Z,75.71
2023-01-26T14:51:20.474Z,75.87
2023-01-26T14:56:21.187Z,74.94
2023-01-26T15:01:22.322Z,74.59
2023-01-26T15:06:14.316Z,74.82
2023-01-26T15:11:25.710Z,75.36
2023-01-26T15:16:25.368Z,75.82
2023-01-26T15:21:23.770Z,75.69
2023-01-26T15:26:28.929Z,76.38
2023-01-26T15:31:26.032Z,76.48
2023-01-26T15:36:32.524Z,76.94
2023-01-26T15:41:24.335Z,76.87
2023-01-26T15:46:16.228Z,77.98
2023-01-26T15:51:14.973Z,77.74
2023-01-26T15:56:10.064Z,77.29
2023-01-26T16:01:01.874Z,77.54
2023-01-26T16:05:54.103Z,76.54
2023-01-26T16:10:46.493Z,77.91
2023-01-26T16:15:50.859Z,77.33
2023-01-26T16:20:44.291Z,77.27
2023-01-26T16:25:37.474Z,77.93
2023-01-26T16:30:29.339Z,77.83
2023-01-26T16:35:23.105Z,78.35
2023-01-26T16:40:17.562Z,78.36
2023-01-26T16:45:26.699Z,78.86
2023-01-26T16:50:19.306Z,77.95
2023-01-26T16:55:13.905Z,78.00
2023-01-26T17:00:07.162Z,78.42
2023-01-26T17:04:59.291Z,77.83
2023-01-26T17:09:51.184Z,77.82
2023-01-26T17:14:43.024Z,78.24
2023-01-26T17:19:34.762Z,78.45
2023-01-26T17:24:26.638Z,78.19
2023-01-26T17:29:18.417Z,78.37
2023-01-26T17:34:10.276Z,77.84
2023-01-26T17:39:01.998Z,77.60
2023-01-26T17:43:54.149Z,79.79
2023-01-26T17:48:47.024Z,78.97
2023-01-26T17:53:40.769Z,79.73
2023-01-26T17:58:32.777Z,80.16
2023-01-26T18:03:26.447Z,80.38
2023-01-26T18:08:18.604Z,80.68
2023-01-26T18:13:10.347Z,80.90
2023-01-26T18:18:02.352Z,81.16
2023-01-26T18:22:54.107Z,81.50
2023-01-26T18:27:45.868Z,81.85
2023-01-26T18:32:39.113Z,81.90
2023-01-26T18:37:33.043Z,82.30
2023-01-26T18:42:24.906Z,82.46
2023-01-26T18:47:16.613Z,82.36
2023-01-26T18:52:08.461Z,82.36
2023-01-26T18:57:00.258Z,82.35
2023-01-26T19:01:52.051Z,82.44
2023-01-26T19:06:43.970Z,82.54
2023-01-26T19:11:38.698Z,83.45
2023-01-26T19:16:31.688Z,82.20
2023-01-26T19:21:25.509Z,82.91
2023-01-26T19:26:22.806Z,84.02
2023-01-26T19:31:17.332Z,83.82
2023-01-26T19:36:09.560Z,83.37
2023-01-26T19:41:02.147Z,82.75
2023-01-26T19:45:56.484Z,83.48
2023-01-26T19:51:23.781Z,83.63
2023-01-26T19:56:21.365Z,83.29
2023-01-26T20:01:13.188Z,83.86
2023-01-26T20:06:06.012Z,84.11
2023-01-26T20:11:05.840Z,84.39
2023-01-26T20:15:58.250Z,83.73
2023-01-26T20:20:54.352Z,84.06
2023-01-26T20:25:46.739Z,83.82
2023-01-26T20:30:38.902Z,83.69
2023-01-26T20:35:31.004Z,84.74
2023-01-26T20:40:22.929Z,84.41
2023-01-26T20:45:14.838Z,84.37
2023-01-26T20:50:13.276Z,84.58
2023-01-26T20:55:08.009Z,83.52
2023-01-26T21:00:00.130Z,83.49
2023-01-26T21:04:54.283Z,83.50
2023-01-26T21:09:46.117Z,82.74
2023-01-26T21:14:37.882Z,82.53
2023-01-26T21:19:29.745Z,83.04
2023-01-26T21:24:22.209Z,82.32
2023-01-26T21:29:16.134Z,82.01
2023-01-26T21:34:09.874Z,81.52
2023-01-26T21:39:02.428Z,81.78
2023-01-26T21:44:06.235Z,82.24
2023-01-26T21:48:58.299Z,80.93
2023-01-26T21:53:50.172Z,80.75
2023-01-26T21:58:54.334Z,81.55
2023-01-26T22:03:46.224Z,82.75
2023-01-26T22:08:38.041Z,82.24
2023-01-26T22:13:31.157Z,82.80
2023-01-26T22:18:23.003Z,83.61
2023-01-26T22:23:14.936Z,83.83
2023-01-26T22:28:08.704Z,84.10
2023-01-26T22:33:01.368Z,83.80
2023-01-26T22:37:54.719Z,83.64
2023-01-26T22:42:49.462Z,83.94
2023-01-26T22:47:43.525Z,84.39
2023-01-26T22:52:35.382Z,84.47
2023-01-26T22:57:27.410Z,84.31
2023-01-26T23:02:19.277Z,84.94
2023-01-26T23:07:12.952Z,84.43
2023-01-26T23:12:06.706Z,84.69
2023-01-26T23:16:59.140Z,84.61
2023-01-26T23:21:51.123Z,84.23
2023-01-26T23:26:43.110Z,83.78
2023-01-26T23:31:35.379Z,83.69
2023-01-26T23:36:27.568Z,83.73
2023-01-26T23:41:22.310Z,83.54
2023-01-26T23:46:16.637Z,83.31
2023-01-26T23:51:11.021Z,83.65
2023-01-26T23:56:10.753Z,82.95
